createdAt,value
2022-09-26T00:01:20.025Z,2.03
2022-09-26T00:03:49.665Z,2.10
2022-09-26T00:06:18.723Z,2.70
2022-09-26T00:08:48.919Z,2.47
2022-09-26T00:11:19.455Z,2.13
2022-09-26T00:13:47.705Z,2.50
2022-09-26T00:16:17.725Z,2.30
2022-09-26T00:18:49.734Z,2.60
2022-09-26T00:21:18.337Z,2.53
2022-09-26T00:23:46.277Z,3.10
2022-09-26T00:26:15.610Z,2.47
2022-09-26T00:28:43.967Z,2.60
2022-09-26T00:31:18.633Z,2.90
2022-09-26T00:33:47.002Z,3.10
2022-09-26T00:36:14.916Z,2.37
2022-09-26T00:38:43.179Z,2.70
2022-09-26T00:41:11.724Z,2.53
2022-09-26T00:43:42.013Z,2.80
2022-09-26T00:46:21.930Z,2.30
2022-09-26T00:48:54.045Z,2.83
2022-09-26T00:51:22.202Z,2.50
2022-09-26T00:53:54.093Z,2.13
2022-09-26T00:56:25.550Z,2.10
2022-09-26T00:58:57.032Z,2.33
2022-09-26T01:01:26.443Z,2.00
2022-09-26T01:03:54.660Z,2.23
2022-09-26T01:06:22.860Z,1.83
2022-09-26T01:08:54.556Z,2.50
2022-09-26T01:11:23.209Z,2.30
2022-09-26T01:13:53.720Z,2.47
2022-09-26T01:16:21.781Z,2.03
2022-09-26T01:18:51.370Z,2.23
2022-09-26T01:21:52.574Z,2.23
2022-09-26T01:24:47.272Z,1.60
2022-09-26T01:28:02.225Z,2.10
2022-09-26T01:30:36.148Z,2.03
2022-09-26T01:33:22.015Z,1.80
2022-09-26T01:36:04.024Z,1.93
2022-09-26T01:38:43.098Z,1.90
2022-09-26T01:41:32.888Z,1.83
2022-09-26T01:44:09.320Z,2.30
2022-09-26T01:46:46.156Z,1.83
2022-09-26T01:49:20.860Z,2.43
2022-09-26T01:51:55.095Z,1.90
2022-09-26T01:54:27.313Z,1.77
2022-09-26T01:56:58.307Z,1.63
2022-09-26T01:59:30.989Z,1.93
2022-09-26T02:02:05.862Z,2.40
2022-09-26T02:04:36.826Z,1.83
2022-09-26T02:07:11.081Z,2.60
2022-09-26T02:09:42.797Z,1.93
2022-09-26T02:12:15.037Z,2.50
2022-09-26T02:14:46.832Z,2.47
2022-09-26T02:17:20.243Z,2.50
2022-09-26T02:19:53.605Z,2.53
2022-09-26T02:22:21.422Z,1.97
2022-09-26T02:24:49.297Z,2.30
2022-09-26T02:27:17.183Z,2.50
2022-09-26T02:29:45.635Z,2.57
2022-09-26T02:32:18.976Z,2.50
2022-09-26T02:34:49.238Z,2.37
2022-09-26T02:37:20.132Z,2.90
2022-09-26T02:39:49.556Z,2.90
2022-09-26T02:42:24.403Z,2.63
2022-09-26T02:45:10.053Z,2.40
2022-09-26T02:48:10.688Z,2.77
2022-09-26T02:50:57.133Z,2.60
2022-09-26T02:53:41.788Z,2.80
2022-09-26T02:56:16.435Z,3.40
2022-09-26T02:58:53.786Z,3.20
2022-09-26T03:01:29.987Z,3.20
2022-09-26T03:04:04.728Z,3.53
2022-09-26T03:06:38.204Z,2.87
2022-09-26T03:09:07.559Z,3.47
2022-09-26T03:11:37.011Z,3.53
2022-09-26T03:14:05.228Z,3.50
2022-09-26T03:16:40.600Z,3.27
2022-09-26T03:19:15.458Z,3.50
2022-09-26T03:21:45.234Z,3.50
2022-09-26T03:24:14.680Z,3.13
2022-09-26T03:26:42.884Z,2.93
2022-09-26T03:29:10.747Z,3.60
2022-09-26T03:31:38.765Z,3.57
2022-09-26T03:34:06.580Z,3.33
2022-09-26T03:36:34.681Z,3.30
2022-09-26T03:39:03.878Z,2.83
2022-09-26T03:41:31.693Z,3.07
2022-09-26T03:43:59.731Z,3.47
2022-09-26T03:46:28.461Z,3.23
2022-09-26T03:48:56.298Z,3.03
2022-09-26T03:51:24.332Z,2.80
2022-09-26T03:53:52.150Z,2.60
2022-09-26T03:56:22.012Z,2.40
2022-09-26T03:58:50.399Z,2.27
2022-09-26T04:01:21.215Z,2.87
2022-09-26T04:03:51.353Z,2.37
2022-09-26T04:06:20.895Z,2.50
2022-09-26T04:08:50.835Z,2.50
2022-09-26T04:11:21.841Z,2.13
2022-09-26T04:13:52.338Z,1.90
2022-09-26T04:16:21.345Z,2.10
2022-09-26T04:18:49.617Z,2.10
2022-09-26T04:21:17.879Z,1.90
2022-09-26T04:23:46.050Z,2.00
2022-09-26T04:26:20.177Z,2.10
2022-09-26T04:28:53.473Z,2.20
2022-09-26T04:31:22.096Z,2.07
2022-09-26T04:33:50.006Z,2.20
2022-09-26T04:36:18.595Z,1.80
2022-09-26T04:38:46.424Z,2.10
2022-09-26T04:41:15.921Z,2.53
2022-09-26T04:43:44.135Z,2.40
2022-09-26T04:46:20.056Z,2.43
2022-09-26T04:48:50.020Z,2.27
2022-09-26T04:51:19.403Z,2.10
2022-09-26T04:53:47.430Z,2.13
2022-09-26T04:56:16.569Z,1.90
2022-09-26T04:58:45.209Z,2.60
2022-09-26T05:01:15.909Z,2.13
2022-09-26T05:03:44.210Z,2.30
2022-09-26T05:06:13.924Z,1.83
2022-09-26T05:08:44.615Z,1.93
2022-09-26T05:11:12.406Z,2.10
2022-09-26T05:13:40.214Z,2.07
2022-09-26T05:16:09.724Z,2.23
2022-09-26T05:18:39.682Z,2.27
2022-09-26T05:21:08.543Z,1.90
2022-09-26T05:23:55.273Z,2.30
2022-09-26T05:26:27.137Z,1.87
2022-09-26T05:28:56.650Z,2.07
2022-09-26T05:31:26.386Z,2.17
2022-09-26T05:33:56.434Z,2.20
2022-09-26T05:36:24.790Z,2.40
2022-09-26T05:38:52.669Z,1.80
2022-09-26T05:41:19.949Z,2.00
2022-09-26T05:43:48.361Z,1.90
2022-09-26T05:46:16.734Z,1.83
2022-09-26T05:48:44.574Z,1.80
2022-09-26T05:51:15.365Z,2.00
2022-09-26T05:53:44.662Z,1.73
2022-09-26T05:56:18.297Z,2.30
2022-09-26T05:58:47.286Z,2.07
2022-09-26T06:01:17.271Z,2.20
2022-09-26T06:03:46.692Z,2.10
2022-09-26T06:06:17.568Z,2.40
2022-09-26T06:08:45.920Z,2.43
2022-09-26T06:11:15.444Z,2.33
2022-09-26T06:13:45.615Z,2.30
2022-09-26T06:16:17.832Z,2.40
2022-09-26T06:18:46.807Z,2.70
2022-09-26T06:21:17.822Z,2.30
2022-09-26T06:23:45.935Z,2.90
2022-09-26T06:26:16.221Z,2.93
2022-09-26T06:28:44.092Z,3.30
2022-09-26T06:31:13.975Z,2.70
2022-09-26T06:33:42.080Z,3.00
2022-09-26T06:36:12.310Z,3.83
2022-09-26T06:38:42.313Z,3.30
2022-09-26T06:41:10.119Z,3.50
2022-09-26T06:43:39.649Z,3.13
2022-09-26T06:46:09.486Z,3.10
2022-09-26T06:48:38.020Z,3.67
2022-09-26T06:51:06.052Z,3.10
2022-09-26T06:53:35.311Z,2.60
2022-09-26T06:56:04.995Z,2.70
2022-09-26T06:58:34.199Z,3.57
2022-09-26T07:01:02.934Z,3.20
2022-09-26T07:03:31.590Z,3.10
2022-09-26T07:06:00.221Z,3.27
2022-09-26T07:08:57.455Z,3.40
2022-09-26T07:11:46.309Z,3.23
2022-09-26T07:14:05.114Z,2.93
2022-09-26T07:16:33.073Z,3.20
2022-09-26T07:19:00.990Z,3.10
2022-09-26T07:21:28.863Z,3.13
2022-09-26T07:23:57.768Z,3.30
2022-09-26T07:26:26.990Z,4.67
2022-09-26T07:28:55.274Z,3.73
2022-09-26T07:31:24.107Z,3.60
2022-09-26T07:33:52.749Z,2.50
2022-09-26T07:36:20.936Z,3.40
2022-09-26T07:38:49.467Z,3.20
2022-09-26T07:41:18.232Z,3.13
2022-09-26T07:44:41.163Z,3.27
2022-09-26T07:46:52.634Z,3.60
2022-09-26T07:49:37.870Z,3.70
2022-09-26T07:52:05.919Z,4.20
2022-09-26T07:54:35.157Z,4.27
2022-09-26T07:57:04.777Z,3.73
2022-09-26T07:59:35.238Z,3.30
2022-09-26T08:02:03.593Z,2.90
2022-09-26T08:04:31.734Z,2.97
2022-09-26T08:07:00.074Z,3.57
2022-09-26T08:09:28.454Z,2.90
2022-09-26T08:11:56.795Z,3.00
2022-09-26T08:14:24.614Z,2.80
2022-09-26T08:16:57.393Z,3.00
2022-09-26T08:19:25.724Z,2.53
2022-09-26T08:21:53.528Z,3.27
2022-09-26T08:24:21.362Z,2.17
2022-09-26T08:26:49.167Z,2.67
2022-09-26T08:29:16.975Z,2.47
2022-09-26T08:31:46.088Z,2.50
2022-09-26T08:34:15.375Z,2.30
2022-09-26T08:36:43.326Z,2.50
2022-09-26T08:39:11.859Z,2.17
2022-09-26T08:41:57.050Z,2.30
2022-09-26T08:44:42.040Z,2.60
2022-09-26T08:47:21.878Z,2.23
2022-09-26T08:50:02.549Z,1.80
2022-09-26T08:52:34.181Z,1.80
2022-09-26T08:55:06.997Z,1.87
2022-09-26T08:57:39.738Z,1.77
2022-09-26T09:00:18.957Z,2.10
2022-09-26T09:03:03.032Z,1.80
2022-09-26T09:05:34.366Z,2.13
2022-09-26T09:08:07.942Z,1.97
2022-09-26T09:10:45.830Z,1.83
2022-09-26T09:13:29.291Z,2.13
2022-09-26T09:16:17.311Z,1.60
2022-09-26T09:18:52.581Z,1.60
2022-09-26T09:21:35.861Z,2.20
2022-09-26T09:24:22.546Z,1.97
2022-09-26T09:32:44.141Z,2.10
2022-09-26T09:35:15.793Z,1.70
2022-09-26T09:37:50.237Z,2.07
2022-09-26T09:40:26.524Z,2.70
2022-09-26T09:42:58.209Z,1.90
2022-09-26T09:45:31.877Z,1.53
2022-09-26T09:47:59.875Z,1.90
2022-09-26T09:50:36.361Z,1.60
2022-09-26T09:53:14.762Z,1.53
2022-09-26T09:55:55.730Z,1.80
2022-09-26T09:58:59.473Z,2.37
2022-09-26T10:01:31.734Z,2.20
2022-09-26T10:04:08.056Z,2.23
2022-09-26T10:06:45.714Z,2.50
2022-09-26T10:09:35.391Z,2.07
2022-09-26T10:12:14.238Z,2.63
2022-09-26T10:14:47.013Z,2.53
2022-09-26T10:17:20.441Z,2.00
2022-09-26T10:19:48.958Z,2.30
2022-09-26T10:22:26.107Z,2.30
2022-09-26T10:25:02.826Z,2.10
2022-09-26T10:27:37.993Z,1.87
2022-09-26T10:30:25.716Z,1.50
2022-09-26T10:32:56.971Z,1.87
2022-09-26T10:35:41.072Z,2.20
2022-09-26T10:38:19.445Z,1.70
2022-09-26T10:40:54.822Z,1.60
2022-09-26T10:43:25.834Z,1.70
2022-09-26T10:45:57.310Z,1.57
2022-09-26T10:48:38.512Z,1.73
2022-09-26T10:51:08.266Z,1.67
2022-09-26T10:53:40.071Z,1.80
2022-09-26T10:56:14.569Z,1.70
2022-09-26T10:58:46.353Z,1.60
2022-09-26T11:01:21.363Z,1.30
2022-09-26T11:03:50.896Z,1.27
2022-09-26T11:06:35.324Z,1.83
2022-09-26T11:09:05.357Z,1.77
2022-09-26T11:11:39.060Z,1.50
2022-09-26T11:14:08.663Z,1.60
2022-09-26T11:16:51.952Z,1.50
2022-09-26T11:19:36.282Z,1.60
2022-09-26T11:22:11.350Z,1.50
2022-09-26T11:24:47.440Z,1.70
2022-09-26T11:27:29.157Z,1.50
2022-09-26T11:30:02.531Z,1.90
2022-09-26T11:32:32.947Z,1.60
2022-09-26T11:35:03.423Z,1.47
2022-09-26T11:38:03.427Z,1.50
2022-09-26T11:40:41.905Z,1.50
2022-09-26T11:43:25.365Z,1.50
2022-09-26T11:46:05.664Z,1.67
2022-09-26T11:48:55.929Z,1.43
2022-09-26T11:51:40.237Z,1.07
2022-09-26T11:54:32.425Z,1.33
2022-09-26T11:57:10.484Z,1.20
2022-09-26T11:59:58.948Z,1.10
2022-09-26T12:03:09.396Z,1.20
2022-09-26T12:05:50.298Z,1.63
2022-09-26T12:08:30.143Z,1.40
2022-09-26T12:11:09.856Z,1.43
2022-09-26T12:13:52.123Z,1.40
2022-09-26T12:16:26.717Z,1.33
2022-09-26T12:19:03.062Z,1.40
2022-09-26T12:22:05.590Z,2.23
2022-09-26T12:24:41.017Z,1.70
2022-09-26T12:27:16.131Z,1.87
2022-09-26T12:29:50.089Z,1.53
2022-09-26T12:32:32.325Z,2.07
2022-09-26T12:35:21.548Z,1.30
2022-09-26T12:38:26.414Z,1.70
2022-09-26T12:41:03.310Z,1.17
2022-09-26T12:43:45.014Z,1.30
2022-09-26T12:46:43.031Z,1.30
2022-09-26T12:49:31.248Z,1.70
2022-09-26T12:52:04.373Z,2.17
2022-09-26T12:54:45.775Z,2.80
2022-09-26T12:57:24.273Z,3.67
2022-09-26T13:00:11.092Z,2.27
2022-09-26T13:02:56.655Z,2.53
2022-09-26T13:05:43.259Z,1.77
2022-09-26T13:08:15.828Z,1.40
2022-09-26T13:10:53.620Z,1.50
2022-09-26T13:13:57.037Z,1.70
2022-09-26T13:16:34.085Z,1.40
2022-09-26T13:19:17.077Z,2.17
2022-09-26T13:21:54.219Z,2.57
2022-09-26T13:24:25.788Z,1.40
2022-09-26T13:27:00.534Z,1.50
2022-09-26T13:29:33.823Z,1.60
2022-09-26T13:32:14.135Z,2.33
2022-09-26T13:34:47.258Z,3.40
2022-09-26T13:37:31.589Z,2.00
2022-09-26T13:40:10.711Z,2.27
2022-09-26T13:42:46.294Z,1.80
2022-09-26T13:45:23.593Z,2.67
2022-09-26T13:47:57.677Z,1.80
2022-09-26T13:50:33.627Z,1.60
2022-09-26T13:53:13.042Z,1.67
2022-09-26T13:55:43.198Z,1.40
2022-09-26T13:58:21.600Z,1.13
2022-09-26T14:00:53.069Z,1.90
2022-09-26T14:03:42.401Z,1.80
2022-09-26T14:06:34.335Z,1.30
2022-09-26T14:09:23.717Z,1.53
2022-09-26T14:11:53.667Z,3.20
2022-09-26T14:14:40.077Z,2.17
2022-09-26T14:17:41.468Z,1.53
2022-09-26T14:20:20.153Z,2.10
2022-09-26T14:22:52.557Z,1.40
2022-09-26T14:26:05.342Z,1.73
2022-09-26T14:28:35.304Z,1.40
2022-09-26T14:31:21.880Z,1.50
2022-09-26T14:33:52.456Z,1.83
2022-09-26T14:36:27.754Z,1.30
2022-09-26T14:38:56.040Z,1.30
2022-09-26T14:41:32.066Z,1.10
2022-09-26T14:44:03.882Z,1.07
2022-09-26T14:46:35.412Z,1.10
2022-09-26T14:49:05.916Z,1.10
2022-09-26T14:51:37.248Z,1.30
2022-09-26T14:54:07.374Z,2.00
2022-09-26T14:56:45.258Z,1.17
2022-09-26T14:59:31.168Z,1.13
2022-09-26T15:02:24.276Z,2.53
2022-09-26T15:05:23.314Z,1.20
2022-09-26T15:07:52.915Z,1.10
2022-09-26T15:10:27.526Z,1.20
2022-09-26T15:13:03.887Z,1.30
2022-09-26T15:15:40.213Z,1.47
2022-09-26T15:18:15.179Z,1.50
2022-09-26T15:20:49.521Z,1.30
2022-09-26T15:23:26.724Z,1.30
2022-09-26T15:25:56.264Z,2.43
2022-09-26T15:28:25.674Z,1.53
2022-09-26T15:31:25.249Z,1.30
2022-09-26T15:34:01.537Z,1.53
2022-09-26T15:36:31.311Z,1.43
2022-09-26T15:38:59.640Z,1.60
2022-09-26T15:41:45.292Z,1.77
2022-09-26T15:44:21.925Z,1.30
2022-09-26T15:46:50.993Z,1.33
2022-09-26T15:49:22.368Z,1.20
2022-09-26T15:51:54.271Z,1.30
2022-09-26T15:54:27.903Z,1.30
2022-09-26T15:57:00.187Z,1.33
2022-09-26T15:59:33.900Z,1.60
2022-09-26T16:02:03.866Z,1.60
2022-09-26T16:04:33.092Z,1.50
2022-09-26T16:07:03.145Z,1.50
2022-09-26T16:09:33.313Z,1.47
2022-09-26T16:12:04.056Z,1.43
2022-09-26T16:14:40.450Z,1.63
2022-09-26T16:17:23.662Z,1.17
2022-09-26T16:19:53.611Z,1.60
2022-09-26T16:22:37.238Z,2.03
2022-09-26T16:25:36.105Z,1.80
2022-09-26T16:28:23.481Z,1.53
2022-09-26T16:31:14.857Z,1.40
2022-09-26T16:33:48.108Z,1.60
2022-09-26T16:36:20.676Z,1.63
2022-09-26T16:38:53.659Z,1.50
2022-09-26T16:41:56.451Z,1.83
2022-09-26T16:44:27.587Z,1.50
2022-09-26T16:47:02.409Z,2.00
2022-09-26T16:49:46.636Z,1.90
2022-09-26T16:52:34.249Z,1.30
2022-09-26T16:55:05.901Z,1.80
2022-09-26T16:57:36.181Z,1.60
2022-09-26T17:00:24.992Z,1.97
2022-09-26T17:02:54.340Z,1.87
2022-09-26T17:05:22.807Z,1.90
2022-09-26T17:07:51.340Z,1.83
2022-09-26T17:10:21.774Z,2.07
2022-09-26T17:12:52.809Z,1.60
2022-09-26T17:15:26.300Z,1.57
2022-09-26T17:17:56.934Z,2.33
2022-09-26T17:20:25.695Z,1.67
2022-09-26T17:22:54.652Z,1.40
2022-09-26T17:25:24.861Z,1.77
2022-09-26T17:27:57.581Z,2.40
2022-09-26T17:30:25.539Z,1.87
2022-09-26T17:32:55.600Z,1.90
2022-09-26T17:35:26.599Z,2.20
2022-09-26T17:37:55.217Z,1.37
2022-09-26T17:40:25.033Z,1.63
2022-09-26T17:42:55.057Z,1.87
2022-09-26T17:45:25.904Z,2.47
2022-09-26T17:47:56.209Z,2.10
2022-09-26T17:50:29.137Z,1.77
2022-09-26T17:52:57.952Z,2.00
2022-09-26T17:55:27.063Z,2.37
2022-09-26T17:57:55.537Z,1.87
2022-09-26T18:00:23.465Z,2.30
2022-09-26T18:02:55.903Z,2.00
2022-09-26T18:05:30.456Z,2.33
2022-09-26T18:08:01.591Z,1.93
2022-09-26T18:10:31.711Z,1.80
2022-09-26T18:13:02.125Z,2.40
2022-09-26T18:15:30.932Z,1.90
2022-09-26T18:18:00.266Z,1.90
2022-09-26T18:20:38.329Z,1.97
2022-09-26T18:23:08.969Z,1.90
2022-09-26T18:25:38.131Z,1.97
2022-09-26T18:28:08.775Z,2.00
2022-09-26T18:30:37.622Z,2.23
2022-09-26T18:33:05.772Z,1.90
2022-09-26T18:35:35.078Z,2.27
2022-09-26T18:38:03.382Z,2.43
2022-09-26T18:40:31.677Z,1.97
2022-09-26T18:42:59.909Z,2.40
2022-09-26T18:45:30.268Z,2.30
2022-09-26T18:47:58.230Z,1.90
2022-09-26T18:50:32.597Z,2.20
2022-09-26T18:53:02.030Z,2.00
2022-09-26T18:55:47.560Z,2.30
2022-09-26T18:58:27.137Z,2.37
2022-09-26T19:00:57.964Z,2.30
2022-09-26T19:03:28.210Z,2.53
2022-09-26T19:06:04.331Z,3.00
2022-09-26T19:08:36.518Z,1.97
2022-09-26T19:11:12.905Z,2.10
2022-09-26T19:13:41.072Z,1.87
2022-09-26T19:16:09.515Z,1.93
2022-09-26T19:18:38.347Z,1.87
2022-09-26T19:21:14.724Z,1.93
2022-09-26T19:23:45.689Z,1.73
2022-09-26T19:26:23.008Z,1.90
2022-09-26T19:28:51.315Z,1.80
2022-09-26T19:31:19.393Z,1.77
2022-09-26T19:33:50.029Z,1.80
2022-09-26T19:36:20.130Z,2.13
2022-09-26T19:38:49.941Z,1.90
2022-09-26T19:41:17.889Z,2.23
2022-09-26T19:43:45.789Z,2.20
2022-09-26T19:46:18.603Z,2.57
2022-09-26T19:48:46.608Z,2.20
2022-09-26T19:51:16.917Z,2.20
2022-09-26T19:53:45.065Z,2.37
2022-09-26T19:56:14.329Z,2.00
2022-09-26T19:58:42.755Z,2.20
2022-09-26T20:01:18.115Z,2.33
2022-09-26T20:03:46.455Z,2.00
2022-09-26T20:06:16.230Z,2.37
2022-09-26T20:08:44.318Z,2.30
2022-09-26T20:11:12.875Z,2.43
2022-09-26T20:13:59.357Z,2.27
2022-09-26T20:16:28.190Z,1.73
2022-09-26T20:18:56.621Z,1.80
2022-09-26T20:21:29.109Z,1.70
2022-09-26T20:24:00.316Z,2.20
2022-09-26T20:26:30.087Z,2.00
2022-09-26T20:28:59.341Z,2.30
2022-09-26T20:31:28.988Z,1.87
2022-09-26T20:33:59.477Z,2.10
2022-09-26T20:36:29.938Z,1.80
2022-09-26T20:39:01.210Z,2.00
2022-09-26T20:41:33.009Z,2.20
2022-09-26T20:44:06.141Z,1.60
2022-09-26T20:46:37.399Z,2.40
2022-09-26T20:49:09.849Z,1.90
2022-09-26T20:51:38.402Z,1.70
2022-09-26T20:54:07.025Z,1.57
2022-09-26T20:56:34.970Z,1.67
2022-09-26T20:59:05.335Z,1.40
2022-09-26T21:01:33.295Z,2.10
2022-09-26T21:04:01.838Z,1.73
2022-09-26T21:06:34.587Z,1.50
2022-09-26T21:09:03.397Z,1.70
2022-09-26T21:11:31.340Z,1.43
2022-09-26T21:13:59.260Z,1.73
2022-09-26T21:16:28.637Z,1.60
2022-09-26T21:18:56.820Z,1.70
2022-09-26T21:21:26.910Z,1.30
2022-09-26T21:23:55.843Z,1.40
2022-09-26T21:26:25.800Z,1.70
2022-09-26T21:28:55.740Z,1.60
2022-09-26T21:31:26.705Z,1.47
2022-09-26T21:33:57.300Z,1.50
2022-09-26T21:36:29.536Z,1.50
2022-09-26T21:39:00.997Z,1.70
2022-09-26T21:41:29.304Z,1.60
2022-09-26T21:44:03.006Z,1.60
2022-09-26T21:46:31.029Z,1.70
2022-09-26T21:49:00.389Z,1.40
2022-09-26T21:51:30.067Z,1.57
2022-09-26T21:54:02.093Z,1.60
2022-09-26T21:56:35.539Z,1.40
2022-09-26T21:59:06.297Z,1.70
2022-09-26T22:01:34.316Z,1.63
2022-09-26T22:04:03.857Z,1.83
2022-09-26T22:06:31.770Z,2.10
2022-09-26T22:08:59.686Z,1.47
2022-09-26T22:11:27.598Z,1.63
2022-09-26T22:13:55.580Z,1.90
2022-09-26T22:16:23.665Z,1.67
2022-09-26T22:18:51.676Z,1.40
2022-09-26T22:21:21.465Z,1.63
2022-09-26T22:23:50.480Z,1.43
2022-09-26T22:26:18.452Z,1.60
2022-09-26T22:28:46.435Z,1.50
2022-09-26T22:31:14.759Z,1.60
2022-09-26T22:33:42.729Z,2.00
2022-09-26T22:36:10.645Z,1.80
2022-09-26T22:38:40.586Z,1.60
2022-09-26T22:41:09.127Z,1.37
2022-09-26T22:43:37.325Z,1.50
2022-09-26T22:46:07.000Z,1.30
2022-09-26T22:48:36.024Z,1.93
2022-09-26T22:51:04.547Z,1.70
2022-09-26T22:53:33.339Z,1.77
2022-09-26T22:56:05.164Z,1.70
2022-09-26T22:58:36.534Z,2.00
2022-09-26T23:01:05.895Z,1.63
2022-09-26T23:03:34.169Z,1.50
2022-09-26T23:06:02.582Z,1.47
2022-09-26T23:08:30.553Z,1.20
2022-09-26T23:10:58.722Z,1.50
2022-09-26T23:13:29.121Z,1.20
2022-09-26T23:15:57.061Z,1.90
2022-09-26T23:18:24.973Z,1.40
2022-09-26T23:20:52.886Z,1.50
2022-09-26T23:23:20.821Z,1.63
2022-09-26T23:25:50.666Z,1.77
2022-09-26T23:28:19.045Z,1.20
2022-09-26T23:30:50.186Z,1.20
2022-09-26T23:33:18.137Z,1.17
2022-09-26T23:35:46.098Z,1.40
2022-09-26T23:38:14.006Z,1.50
2022-09-26T23:40:41.978Z,1.13
2022-09-26T23:43:10.104Z,1.40
2022-09-26T23:45:38.059Z,1.23
2022-09-26T23:48:07.374Z,1.57
2022-09-26T23:50:35.297Z,1.47
2022-09-26T23:53:06.432Z,1.47
2022-09-26T23:55:35.099Z,1.20
2022-09-26T23:58:03.042Z,1.43
